Time;durP1;ratioP1;P1;durP2;ratioP2;P2;SDS_P1;SDS_P2;PMS_P1;PMS_P2;Temp;Humidity;BMP_temperature;BMP_pressure;BME280_temperature;BME280_humidity;BME280_pressure;Samples;Min_cycle;Max_cycle;Signal;HPM_P1;HPM_P2
2023/08/18 00:01:50;;;;;;;10.73;9.93;;;;;;;22.17;100.00;100120.31;4982481;28;20235;-80
2023/08/18 00:04:15;;;;;;;11.20;10.40;;;;;;;22.13;100.00;100118.81;5000499;28;20641;-80
2023/08/18 00:06:41;;;;;;;10.50;9.70;;;;;;;22.10;100.00;100126.06;4981963;28;20197;-79
2023/08/18 00:09:06;;;;;;;10.10;9.40;;;;;;;22.05;100.00;100116.66;4983385;28;20640;-79
2023/08/18 00:11:31;;;;;;;11.93;11.03;;;;;;;22.02;100.00;100114.19;4999420;28;20196;-79
2023/08/18 00:13:57;;;;;;;11.67;10.87;;;;;;;21.98;100.00;100119.75;4984834;28;20995;-80
2023/08/18 00:16:22;;;;;;;12.73;11.60;;;;;;;21.92;100.00;100108.63;4984877;28;20272;-79
2023/08/18 00:18:47;;;;;;;11.50;10.70;;;;;;;21.88;100.00;100116.81;4994351;28;20193;-80
2023/08/18 00:21:14;;;;;;;10.93;10.13;;;;;;;21.83;100.00;100121.47;4974297;28;20219;-79
2023/08/18 00:23:39;;;;;;;11.20;10.27;;;;;;;21.77;100.00;100123.56;4983606;28;20316;-79
2023/08/18 00:26:05;;;;;;;11.13;10.33;;;;;;;21.75;100.00;100117.53;4984372;28;20219;-78
2023/08/18 00:28:31;;;;;;;11.03;10.23;;;;;;;21.71;100.00;100107.25;4984462;28;20185;-79
2023/08/18 00:30:56;;;;;;;11.03;10.23;;;;;;;21.70;100.00;100116.13;4984913;28;20194;-79
2023/08/18 00:33:21;;;;;;;11.23;10.43;;;;;;;21.67;100.00;100111.00;4981007;28;20193;-79
2023/08/18 00:35:47;;;;;;;11.40;10.50;;;;;;;21.65;100.00;100107.63;4976602;28;20975;-79
2023/08/18 00:38:12;;;;;;;11.63;10.77;;;;;;;21.63;100.00;100118.22;4998942;28;20192;-79
2023/08/18 00:40:37;;;;;;;10.83;10.03;;;;;;;21.59;100.00;100107.00;4983664;28;21083;-79
2023/08/18 00:43:03;;;;;;;10.60;9.80;;;;;;;21.56;100.00;100114.22;4984024;28;20251;-79
2023/08/18 00:45:28;;;;;;;11.80;10.93;;;;;;;21.54;100.00;100116.09;4982949;28;20231;-80
2023/08/18 00:47:54;;;;;;;10.90;10.10;;;;;;;21.53;100.00;100106.50;4983646;28;20192;-80
2023/08/18 00:50:19;;;;;;;11.67;10.80;;;;;;;21.52;100.00;100105.66;4980665;28;20222;-79
2023/08/18 00:52:56;;;;;;;11.13;10.43;;;;;;;21.50;100.00;100104.03;4983306;28;20932;-80
2023/08/18 00:55:21;;;;;;;10.27;9.57;;;;;;;21.47;100.00;100107.72;4986924;28;20208;-79
2023/08/18 00:57:46;;;;;;;10.67;9.93;;;;;;;21.44;100.00;100106.13;4988550;28;20181;-80
2023/08/18 01:00:12;;;;;;;10.87;10.07;;;;;;;21.44;100.00;100110.50;4982505;28;20208;-79
2023/08/18 01:02:37;;;;;;;10.67;9.97;;;;;;;21.43;100.00;100109.69;4983858;28;21634;-80
2023/08/18 01:05:02;;;;;;;11.43;10.53;;;;;;;21.38;100.00;100111.72;4983750;28;20215;-80
2023/08/18 01:07:28;;;;;;;11.33;10.53;;;;;;;21.34;100.00;100107.56;4991899;28;20177;-79
2023/08/18 01:09:54;;;;;;;11.17;10.37;;;;;;;21.28;100.00;100106.13;4997379;28;20232;-81
2023/08/18 01:12:42;;;;;;;10.73;9.93;;;;;;;21.23;100.00;100100.28;5000436;28;20212;-79
2023/08/18 01:15:15;;;;;;;12.03;11.10;;;;;;;21.19;100.00;100109.28;5000711;28;20231;-79
2023/08/18 01:17:47;;;;;;;11.83;10.97;;;;;;;21.14;100.00;100098.16;4982195;28;20189;-80
2023/08/18 01:20:13;;;;;;;11.73;10.93;;;;;;;21.11;100.00;100096.56;5009005;28;21989;-79
2023/08/18 01:22:39;;;;;;;12.03;11.13;;;;;;;21.09;100.00;100093.16;4984509;28;20251;-80
2023/08/18 01:25:05;;;;;;;10.80;10.00;;;;;;;21.07;100.00;100107.34;4990935;28;20223;-80
2023/08/18 01:27:32;;;;;;;10.97;10.20;;;;;;;20.99;100.00;100098.09;4991817;28;20192;-80
2023/08/18 01:29:58;;;;;;;12.00;11.17;;;;;;;20.96;100.00;100097.41;4990200;28;20725;-80
2023/08/18 01:32:28;;;;;;;12.73;11.60;;;;;;;20.95;100.00;100103.59;4984632;28;20203;-81
2023/08/18 01:34:55;;;;;;;11.60;10.73;;;;;;;20.95;100.00;100114.13;5005436;28;20606;-80
2023/08/18 01:37:22;;;;;;;11.33;10.43;;;;;;;20.91;100.00;100117.84;4989334;28;20452;-79
2023/08/18 01:39:50;;;;;;;10.73;9.93;;;;;;;20.88;100.00;100123.28;5010198;28;20192;-80
2023/08/18 01:42:15;;;;;;;11.27;10.37;;;;;;;20.83;100.00;100123.53;4990899;28;20196;-80
2023/08/18 01:44:41;;;;;;;10.40;9.60;;;;;;;20.78;100.00;100121.16;4984442;28;20205;-81
2023/08/18 01:47:06;;;;;;;10.70;9.93;;;;;;;20.77;100.00;100116.84;5002486;28;20288;-81
2023/08/18 01:49:31;;;;;;;10.80;10.10;;;;;;;20.75;100.00;100109.94;4985741;28;20197;-80
2023/08/18 01:51:57;;;;;;;10.40;9.70;;;;;;;20.76;100.00;100114.28;4994387;28;20196;-81
2023/08/18 01:54:22;;;;;;;9.93;9.23;;;;;;;20.75;100.00;100115.19;4990197;28;20243;-80
2023/08/18 01:56:47;;;;;;;10.20;9.50;;;;;;;20.74;100.00;100110.88;4989789;28;20873;-80
2023/08/18 01:59:14;;;;;;;11.03;10.23;;;;;;;20.71;100.00;100111.91;4991281;28;20547;-80
2023/08/18 02:01:40;;;;;;;10.73;10.03;;;;;;;20.66;100.00;100106.03;4988015;28;20197;-81
2023/08/18 02:04:05;;;;;;;10.77;9.97;;;;;;;20.62;100.00;100107.97;4999844;28;20204;-81
2023/08/18 02:06:31;;;;;;;9.70;9.00;;;;;;;20.56;100.00;100100.41;4985948;28;20226;-81
2023/08/18 02:08:57;;;;;;;9.37;8.77;;;;;;;20.51;100.00;100099.78;5009333;28;20280;-81
2023/08/18 02:11:22;;;;;;;9.37;8.67;;;;;;;20.46;100.00;100100.06;4990847;28;20205;-81
2023/08/18 02:13:47;;;;;;;9.27;8.47;;;;;;;20.43;100.00;100097.56;4988158;28;20221;-80
2023/08/18 02:16:13;;;;;;;9.07;8.27;;;;;;;20.40;100.00;100093.34;4988778;28;20204;-82
2023/08/18 02:18:39;;;;;;;8.20;7.60;;;;;;;20.39;100.00;100086.38;5007632;28;20197;-80
2023/08/18 02:21:04;;;;;;;9.30;8.50;;;;;;;20.36;100.00;100083.91;4988782;28;20203;-80
2023/08/18 02:23:30;;;;;;;8.90;8.30;;;;;;;20.33;100.00;100088.50;4988796;28;20193;-80
2023/08/18 02:26:02;;;;;;;8.67;8.07;;;;;;;20.30;100.00;100086.88;4992611;28;20216;-80
2023/08/18 02:28:29;;;;;;;8.53;7.83;;;;;;;20.29;100.00;100089.56;4990048;28;20228;-81
2023/08/18 02:31:05;;;;;;;8.97;8.27;;;;;;;20.27;100.00;100086.22;4989069;28;20312;-80
2023/08/18 02:33:32;;;;;;;9.40;8.70;;;;;;;20.24;100.00;100092.44;4989353;28;20188;-81
2023/08/18 02:36:01;;;;;;;9.50;8.80;;;;;;;20.20;100.00;100093.53;4988319;28;20598;-79
2023/08/18 02:38:27;;;;;;;9.17;8.47;;;;;;;20.16;100.00;100087.59;4987714;28;20189;-81
2023/08/18 02:40:53;;;;;;;9.30;8.60;;;;;;;20.10;100.00;100083.53;5001742;28;20569;-81
2023/08/18 02:43:19;;;;;;;9.43;8.63;;;;;;;20.08;100.00;100077.50;4987667;28;20189;-79
2023/08/18 02:45:45;;;;;;;10.00;9.20;;;;;;;20.07;100.00;100070.53;4987241;28;20223;-80
2023/08/18 02:48:13;;;;;;;9.00;8.40;;;;;;;20.05;100.00;100067.13;4986530;28;20192;-81
2023/08/18 02:50:39;;;;;;;9.47;8.77;;;;;;;20.04;100.00;100065.44;4987752;28;20197;-81
2023/08/18 02:53:06;;;;;;;9.07;8.37;;;;;;;20.02;100.00;100067.31;4987221;28;20203;-81
2023/08/18 02:55:32;;;;;;;9.03;8.33;;;;;;;20.03;100.00;100076.91;5004873;28;20273;-81
2023/08/18 02:57:58;;;;;;;9.43;8.83;;;;;;;20.03;100.00;100074.28;4988384;28;20192;-80
2023/08/18 03:00:23;;;;;;;9.17;8.47;;;;;;;20.03;100.00;100082.16;4983419;28;20203;-80
2023/08/18 03:02:49;;;;;;;8.83;8.03;;;;;;;20.03;100.00;100076.03;4984384;28;20197;-81
2023/08/18 03:05:15;;;;;;;9.00;8.30;;;;;;;20.01;100.00;100078.75;4998540;28;20226;-79
2023/08/18 03:07:40;;;;;;;8.77;8.13;;;;;;;19.99;100.00;100080.59;4984806;28;20240;-80
2023/08/18 03:10:06;;;;;;;9.37;8.77;;;;;;;19.95;100.00;100090.44;4983464;28;20196;-82
2023/08/18 03:12:31;;;;;;;9.10;8.50;;;;;;;19.91;100.00;100085.38;4985008;28;20193;-80
2023/08/18 03:14:57;;;;;;;8.80;8.20;;;;;;;19.89;100.00;100084.66;4974997;28;20234;-80
2023/08/18 03:17:22;;;;;;;9.30;8.70;;;;;;;19.88;100.00;100085.56;4980577;28;20278;-81
2023/08/18 03:19:47;;;;;;;9.07;8.33;;;;;;;19.86;100.00;100087.38;4984835;28;20196;-80
2023/08/18 03:22:13;;;;;;;8.87;8.27;;;;;;;19.83;100.00;100088.38;4998369;28;20201;-81
2023/08/18 03:24:38;;;;;;;9.50;8.80;;;;;;;19.82;100.00;100091.09;4984253;28;20208;-81
2023/08/18 03:27:04;;;;;;;8.83;8.20;;;;;;;19.78;100.00;100088.63;4985330;28;20235;-80
2023/08/18 03:29:29;;;;;;;8.87;8.27;;;;;;;19.75;100.00;100083.50;4990632;28;20225;-81
2023/08/18 03:31:54;;;;;;;8.80;8.20;;;;;;;19.73;100.00;100093.28;4980135;28;20248;-80
2023/08/18 03:34:19;;;;;;;8.27;7.77;;;;;;;19.69;100.00;100091.72;4984521;28;20216;-78
2023/08/18 03:36:45;;;;;;;8.50;7.80;;;;;;;19.66;100.00;100094.50;4990625;28;20243;-79
2023/08/18 03:39:12;;;;;;;9.30;8.60;;;;;;;19.63;100.00;100089.38;4987271;28;20208;-80
2023/08/18 03:41:37;;;;;;;8.80;8.20;;;;;;;19.61;100.00;100096.47;4984951;28;20188;-79
2023/08/18 03:44:03;;;;;;;10.93;10.13;;;;;;;19.57;100.00;100098.41;4983350;28;20209;-79
2023/08/18 03:46:28;;;;;;;12.07;11.10;;;;;;;19.55;100.00;100099.44;4989069;28;20203;-80
2023/08/18 03:48:54;;;;;;;10.60;9.80;;;;;;;19.53;100.00;100099.50;4988672;28;20250;-80
2023/08/18 03:51:20;;;;;;;10.13;9.30;;;;;;;19.52;100.00;100102.19;4988294;28;20188;-79
2023/08/18 03:53:45;;;;;;;9.77;8.97;;;;;;;19.53;100.00;100096.88;4981875;28;20383;-80
2023/08/18 03:56:11;;;;;;;9.33;8.63;;;;;;;19.52;100.00;100094.31;5000921;28;20187;-80
2023/08/18 03:58:36;;;;;;;9.67;8.90;;;;;;;19.54;100.00;100095.09;4998925;28;20199;-80
2023/08/18 04:01:08;;;;;;;9.43;8.73;;;;;;;19.56;100.00;100090.63;4989734;28;20281;-79
2023/08/18 04:03:39;;;;;;;9.30;8.53;;;;;;;19.59;100.00;100095.69;4986742;28;20257;-80
2023/08/18 04:06:05;;;;;;;9.83;9.07;;;;;;;19.60;100.00;100087.78;4989256;28;20193;-78
2023/08/18 04:08:38;;;;;;;10.27;9.40;;;;;;;19.64;100.00;100096.34;5002280;28;20218;-79
2023/08/18 04:11:03;;;;;;;9.27;8.57;;;;;;;19.66;100.00;100097.13;5000179;28;20199;-80
2023/08/18 04:13:29;;;;;;;9.40;8.63;;;;;;;19.69;100.00;100098.72;4985809;28;20196;-79
2023/08/18 04:15:54;;;;;;;9.33;8.53;;;;;;;19.71;100.00;100089.00;4984868;28;20196;-78
2023/08/18 04:18:19;;;;;;;9.57;8.87;;;;;;;19.73;100.00;100092.41;4985930;28;20173;-79
2023/08/18 04:20:45;;;;;;;9.47;8.77;;;;;;;19.76;100.00;100093.09;4982704;28;20193;-78
2023/08/18 04:23:10;;;;;;;10.73;9.93;;;;;;;19.78;100.00;100096.50;4999705;28;20580;-78
2023/08/18 04:25:36;;;;;;;10.53;9.67;;;;;;;19.83;100.00;100087.53;4982423;28;20210;-79
2023/08/18 04:28:01;;;;;;;12.80;11.70;;;;;;;19.85;100.00;100086.53;4983151;28;20189;-77
2023/08/18 04:30:26;;;;;;;13.17;12.07;;;;;;;19.90;100.00;100099.44;4986812;28;20195;-78
2023/08/18 04:32:51;;;;;;;13.53;12.43;;;;;;;19.93;100.00;100102.78;4985533;28;20219;-79
2023/08/18 04:35:17;;;;;;;14.97;13.67;;;;;;;19.95;100.00;100102.69;4984201;28;20260;-79
2023/08/18 04:37:42;;;;;;;13.83;12.63;;;;;;;19.95;100.00;100106.19;4983929;28;20190;-77
2023/08/18 04:40:08;;;;;;;14.17;13.03;;;;;;;19.99;100.00;100101.63;4998609;28;20189;-77
2023/08/18 04:42:33;;;;;;;14.47;13.30;;;;;;;20.03;100.00;100110.19;4977399;28;20189;-77
2023/08/18 04:44:59;;;;;;;13.37;12.27;;;;;;;20.04;100.00;100112.72;4997916;28;20209;-79
2023/08/18 04:47:24;;;;;;;13.70;12.60;;;;;;;20.06;100.00;100115.28;4986743;28;20233;-78
2023/08/18 04:49:49;;;;;;;12.53;11.53;;;;;;;20.09;100.00;100115.97;4981195;28;20185;-78
2023/08/18 04:52:15;;;;;;;13.10;12.00;;;;;;;20.12;100.00;100114.94;4985912;28;20191;-78
2023/08/18 04:54:40;;;;;;;12.80;11.90;;;;;;;20.14;100.00;100120.16;4991205;28;21065;-80
2023/08/18 04:57:07;;;;;;;12.57;11.63;;;;;;;20.17;100.00;100120.00;4990963;28;20215;-79
2023/08/18 04:59:32;;;;;;;12.77;11.77;;;;;;;20.17;100.00;100118.19;4984286;28;20288;-79
2023/08/18 05:01:57;;;;;;;12.73;11.73;;;;;;;20.20;100.00;100112.78;4989270;28;20256;-80
2023/08/18 05:04:23;;;;;;;12.23;11.13;;;;;;;20.21;100.00;100116.25;4991886;28;20217;-80
2023/08/18 05:06:49;;;;;;;11.20;10.40;;;;;;;20.21;100.00;100122.38;5003144;28;20657;-81
2023/08/18 05:09:14;;;;;;;11.90;11.00;;;;;;;20.24;100.00;100123.97;4980174;28;20232;-80
2023/08/18 05:11:39;;;;;;;11.03;10.13;;;;;;;20.28;100.00;100128.16;4996219;28;20260;-80
2023/08/18 05:14:05;;;;;;;10.20;9.50;;;;;;;20.30;100.00;100125.44;4996229;28;20255;-81
2023/08/18 05:16:30;;;;;;;10.87;9.97;;;;;;;20.31;100.00;100122.75;4987166;28;20196;-78
2023/08/18 05:18:55;;;;;;;11.03;10.07;;;;;;;20.34;100.00;100129.63;4987656;28;20283;-79
2023/08/18 05:21:21;;;;;;;11.50;10.57;;;;;;;20.37;100.00;100126.84;4981644;28;20193;-79
2023/08/18 05:23:47;;;;;;;10.43;9.63;;;;;;;20.40;100.00;100131.94;4979428;28;20311;-80
2023/08/18 05:26:12;;;;;;;9.67;8.97;;;;;;;20.46;100.00;100133.38;4984512;28;20201;-79
2023/08/18 05:28:39;;;;;;;9.67;9.07;;;;;;;20.52;100.00;100131.28;4988226;28;20192;-79
2023/08/18 05:31:07;;;;;;;9.60;8.90;;;;;;;20.60;100.00;100128.25;4981611;28;20184;-80
2023/08/18 05:33:32;;;;;;;9.03;8.33;;;;;;;20.66;100.00;100127.88;4981554;28;20307;-79
2023/08/18 05:35:59;;;;;;;8.60;8.00;;;;;;;20.71;100.00;100125.03;4985457;28;21169;-80
2023/08/18 05:38:25;;;;;;;8.30;7.70;;;;;;;20.77;100.00;100131.78;4995951;28;20199;-79
2023/08/18 05:40:50;;;;;;;8.27;7.77;;;;;;;20.83;100.00;100136.69;4986739;28;20568;-78
2023/08/18 05:43:16;;;;;;;9.60;8.90;;;;;;;20.83;100.00;100139.31;4985465;28;20236;-78
2023/08/18 05:45:44;;;;;;;8.43;7.83;;;;;;;20.86;100.00;100147.91;4995484;28;20228;-80
2023/08/18 05:48:09;;;;;;;9.80;9.00;;;;;;;20.91;100.00;100147.66;4980728;28;20208;-78
2023/08/18 05:50:35;;;;;;;8.93;8.33;;;;;;;20.89;100.00;100143.38;4983103;28;20212;-78
2023/08/18 05:53:02;;;;;;;8.53;7.93;;;;;;;20.88;100.00;100139.94;4985000;28;20216;-78
2023/08/18 05:55:27;;;;;;;7.97;7.37;;;;;;;20.90;100.00;100147.72;5002865;28;20618;-78
2023/08/18 05:57:53;;;;;;;8.50;7.90;;;;;;;20.93;100.00;100145.78;4985638;28;20197;-78
2023/08/18 06:00:19;;;;;;;7.70;7.20;;;;;;;21.05;100.00;100152.13;4985319;28;20271;-78
2023/08/18 06:02:44;;;;;;;6.70;6.30;;;;;;;21.15;100.00;100148.09;4983602;28;20193;-78
2023/08/18 06:05:10;;;;;;;6.03;5.63;;;;;;;21.26;100.00;100139.56;4985091;28;20287;-78
2023/08/18 06:07:36;;;;;;;7.40;6.90;;;;;;;21.39;100.00;100144.16;4980594;28;20203;-78
2023/08/18 06:10:03;;;;;;;6.60;6.20;;;;;;;21.52;100.00;100150.44;4981741;28;20193;-78
2023/08/18 06:12:28;;;;;;;7.53;7.03;;;;;;;21.61;100.00;100147.28;4992063;28;20212;-78
2023/08/18 06:14:54;;;;;;;7.20;6.70;;;;;;;21.66;100.00;100154.09;5003233;28;21338;-80
2023/08/18 06:17:19;;;;;;;7.00;6.50;;;;;;;21.72;100.00;100156.34;4985999;28;20231;-78
2023/08/18 06:19:44;;;;;;;8.43;7.83;;;;;;;21.82;100.00;100149.63;4986520;28;20685;-78
2023/08/18 06:22:09;;;;;;;7.27;6.77;;;;;;;21.90;100.00;100157.09;4976785;28;20224;-78
2023/08/18 06:24:35;;;;;;;6.80;6.30;;;;;;;22.01;100.00;100169.59;4980125;28;20215;-78
2023/08/18 06:27:00;;;;;;;7.30;6.70;;;;;;;22.14;100.00;100170.59;4985884;28;20248;-79
2023/08/18 06:29:25;;;;;;;6.77;6.27;;;;;;;22.27;100.00;100168.06;4994033;28;20227;-80
2023/08/18 06:31:51;;;;;;;6.37;5.77;;;;;;;22.41;100.00;100169.00;4981643;28;20218;-78
2023/08/18 06:34:16;;;;;;;8.00;7.40;;;;;;;22.53;100.00;100174.44;4999560;28;20216;-77
2023/08/18 06:36:41;;;;;;;6.80;6.30;;;;;;;22.63;100.00;100174.72;4984078;28;20184;-77
2023/08/18 06:39:08;;;;;;;7.60;7.10;;;;;;;22.51;100.00;100181.59;4987777;28;20199;-78
2023/08/18 06:41:36;;;;;;;7.30;6.80;;;;;;;22.57;100.00;100180.34;4985034;28;22276;-79
2023/08/18 06:44:01;;;;;;;6.33;5.77;;;;;;;22.87;100.00;100178.56;4988977;28;20208;-78
2023/08/18 06:46:26;;;;;;;5.87;5.40;;;;;;;23.27;100.00;100176.94;4984977;28;20185;-79
2023/08/18 06:48:52;;;;;;;5.13;4.80;;;;;;;23.84;100.00;100182.06;4986791;28;20203;-79
2023/08/18 06:51:18;;;;;;;7.93;7.17;;;;;;;24.00;100.00;100188.06;4984112;28;20193;-79
2023/08/18 06:53:43;;;;;;;5.17;4.87;;;;;;;24.48;100.00;100194.56;4998974;28;20274;-79
2023/08/18 06:56:08;;;;;;;5.43;5.03;;;;;;;24.64;100.00;100199.66;4986273;28;20305;-79
2023/08/18 06:58:34;;;;;;;4.67;4.30;;;;;;;25.01;100.00;100193.59;4991756;28;20193;-80
2023/08/18 07:00:59;;;;;;;9.30;7.03;;;;;;;25.11;100.00;100190.16;4994017;28;20208;-79
2023/08/18 07:03:24;;;;;;;6.88;5.65;;;;;;;25.32;100.00;100183.44;4989069;28;20192;-80
2023/08/18 07:05:51;;;;;;;9.20;6.57;;;;;;;24.87;100.00;100195.44;4986886;28;20303;-78
2023/08/18 07:08:16;;;;;;;12.60;7.13;;;;;;;24.79;100.00;100201.25;5000305;28;20276;-79
2023/08/18 07:10:42;;;;;;;8.02;5.75;;;;;;;25.16;100.00;100196.94;4992667;28;20312;-81
2023/08/18 07:13:07;;;;;;;7.90;7.13;;;;;;;24.09;100.00;100185.78;4984752;28;20181;-81
2023/08/18 07:15:33;;;;;;;7.70;6.78;;;;;;;24.29;100.00;100195.81;4983952;28;20764;-79
2023/08/18 07:17:58;;;;;;;7.30;6.00;;;;;;;24.93;100.00;100191.50;4986237;28;20200;-79
2023/08/18 07:20:23;;;;;;;7.95;7.13;;;;;;;24.66;100.00;100195.06;4985014;28;20204;-80
2023/08/18 07:22:48;;;;;;;6.40;5.75;;;;;;;25.34;100.00;100194.75;4988270;28;20228;-79
2023/08/18 07:25:14;;;;;;;6.97;5.32;;;;;;;25.98;100.00;100197.13;4993736;28;20201;-80
2023/08/18 07:27:39;;;;;;;5.40;4.88;;;;;;;26.56;100.00;100193.66;4984276;28;20231;-79
2023/08/18 07:30:06;;;;;;;6.22;5.82;;;;;;;26.88;100.00;100198.25;4980528;28;20216;-80
2023/08/18 07:32:31;;;;;;;5.10;4.60;;;;;;;27.19;100.00;100197.59;4986011;28;20597;-80
2023/08/18 07:34:56;;;;;;;5.30;4.90;;;;;;;27.56;99.31;100202.63;4991132;28;20217;-79
2023/08/18 07:37:22;;;;;;;6.00;5.50;;;;;;;27.61;98.84;100205.72;4981436;28;20238;-80
2023/08/18 07:39:47;;;;;;;6.18;5.20;;;;;;;28.02;95.82;100202.41;4990966;28;20204;-79
2023/08/18 07:42:12;;;;;;;5.45;4.93;;;;;;;27.96;93.74;100198.47;4993775;28;20189;-78
2023/08/18 07:44:38;;;;;;;5.97;5.40;;;;;;;28.19;92.97;100214.31;4983745;28;20205;-80
2023/08/18 07:47:03;;;;;;;5.63;5.13;;;;;;;28.28;92.53;100211.72;4983589;28;20197;-79
2023/08/18 07:49:28;;;;;;;6.32;5.10;;;;;;;28.43;91.71;100219.38;4987951;28;20812;-79
2023/08/18 07:51:54;;;;;;;4.75;4.35;;;;;;;28.35;92.88;100216.53;4981357;28;20804;-79
2023/08/18 07:54:20;;;;;;;7.53;6.72;;;;;;;27.81;92.08;100224.50;4995787;28;20217;-79
2023/08/18 07:56:45;;;;;;;5.72;5.20;;;;;;;27.90;93.64;100214.94;4997499;28;20189;-78
2023/08/18 07:59:10;;;;;;;7.05;6.00;;;;;;;28.00;92.46;100205.19;4978902;28;20185;-78
2023/08/18 08:01:36;;;;;;;7.38;6.00;;;;;;;27.76;93.92;100211.59;4997759;28;20203;-78
2023/08/18 08:04:01;;;;;;;7.15;6.18;;;;;;;27.63;94.39;100205.63;4981294;28;20212;-80
2023/08/18 08:06:26;;;;;;;7.10;6.40;;;;;;;27.95;92.14;100197.59;4994804;28;20220;-80
2023/08/18 08:08:52;;;;;;;6.85;6.25;;;;;;;28.01;92.47;100190.91;4981298;28;20244;-80
2023/08/18 08:11:17;;;;;;;7.63;6.93;;;;;;;28.14;92.06;100193.44;4981124;28;20184;-79
2023/08/18 08:13:44;;;;;;;6.63;6.03;;;;;;;28.28;92.20;100197.59;4980741;28;20230;-79
2023/08/18 08:16:09;;;;;;;6.88;6.28;;;;;;;28.33;91.23;100195.34;4983423;28;20196;-79
2023/08/18 08:18:34;;;;;;;7.50;6.80;;;;;;;28.54;89.75;100203.31;4977603;28;20184;-79
2023/08/18 08:21:02;;;;;;;7.32;6.63;;;;;;;28.56;90.99;100196.03;4981236;28;20189;-80
2023/08/18 08:23:28;;;;;;;6.45;5.85;;;;;;;28.51;90.68;100195.59;4993905;28;20185;-79
2023/08/18 08:25:53;;;;;;;7.07;6.38;;;;;;;28.42;90.86;100197.25;4985645;28;20545;-82
2023/08/18 08:28:18;;;;;;;7.68;6.75;;;;;;;28.57;90.08;100203.03;4978492;28;20232;-79
2023/08/18 08:30:44;;;;;;;7.68;6.47;;;;;;;28.39;91.76;100207.28;5001507;28;20190;-80
2023/08/18 08:33:11;;;;;;;6.72;6.03;;;;;;;28.34;91.23;100206.88;5005412;28;20220;-79
2023/08/18 08:35:36;;;;;;;7.35;6.75;;;;;;;28.03;91.60;100209.44;4984591;28;20296;-78
2023/08/18 08:38:02;;;;;;;6.68;6.05;;;;;;;27.82;92.80;100212.91;5000288;28;20748;-80
2023/08/18 08:40:27;;;;;;;6.40;5.80;;;;;;;27.68;94.70;100211.41;4985696;28;20716;-82
2023/08/18 08:42:54;;;;;;;6.45;5.95;;;;;;;27.64;96.34;100208.13;5001774;28;20272;-79
2023/08/18 08:45:20;;;;;;;6.45;5.82;;;;;;;27.72;98.58;100207.50;4988152;28;20235;-79
2023/08/18 08:47:47;;;;;;;7.23;6.53;;;;;;;27.52;98.52;100207.34;4985282;28;20268;-82
2023/08/18 08:50:16;;;;;;;7.90;6.80;;;;;;;27.37;99.64;100208.56;4986391;28;20293;-80
2023/08/18 08:52:42;;;;;;;6.77;6.00;;;;;;;27.30;99.03;100202.06;4994193;28;20280;-78
2023/08/18 08:55:07;;;;;;;7.30;6.60;;;;;;;26.92;100.00;100212.97;4995328;28;20266;-80
2023/08/18 08:57:33;;;;;;;7.90;7.10;;;;;;;26.85;100.00;100208.28;4984759;28;20189;-79
2023/08/18 09:00:00;;;;;;;9.20;7.43;;;;;;;26.76;100.00;100201.88;4995979;28;20184;-79
2023/08/18 09:02:25;;;;;;;9.13;7.27;;;;;;;26.62;100.00;100208.25;4984796;28;20276;-79
2023/08/18 09:04:51;;;;;;;8.27;7.40;;;;;;;26.43;100.00;100212.31;4985220;28;20294;-80
2023/08/18 09:07:17;;;;;;;8.23;7.27;;;;;;;26.13;100.00;100211.06;4984514;28;20192;-81
2023/08/18 09:09:43;;;;;;;7.83;7.17;;;;;;;26.17;100.00;100204.56;4985371;28;20197;-81
2023/08/18 09:12:10;;;;;;;8.17;6.73;;;;;;;26.41;100.00;100202.78;4986626;28;20224;-80
2023/08/18 09:14:39;;;;;;;8.43;7.27;;;;;;;26.56;100.00;100206.91;4987058;28;20274;-80
2023/08/18 09:17:05;;;;;;;7.70;6.77;;;;;;;26.58;100.00;100207.66;4983005;28;20188;-80
2023/08/18 09:19:31;;;;;;;7.17;6.57;;;;;;;26.72;98.84;100201.22;4986236;28;20200;-80
2023/08/18 09:21:58;;;;;;;7.03;6.43;;;;;;;26.85;97.14;100197.66;4987604;28;20220;-80
2023/08/18 09:24:24;;;;;;;8.10;7.30;;;;;;;26.90;98.10;100199.00;4991696;28;20219;-81
2023/08/18 09:26:49;;;;;;;7.30;6.67;;;;;;;26.92;97.90;100201.50;4999986;28;20189;-81
2023/08/18 09:29:14;;;;;;;10.30;7.80;;;;;;;26.47;99.76;100197.03;4982610;28;20189;-81
2023/08/18 09:31:40;;;;;;;8.70;8.00;;;;;;;26.40;96.39;100195.78;4985057;28;20189;-80
2023/08/18 09:34:06;;;;;;;7.17;6.57;;;;;;;26.44;96.72;100195.44;4989961;28;20212;-79
2023/08/18 09:36:31;;;;;;;7.60;6.63;;;;;;;26.42;94.53;100197.34;4987661;28;20192;-80
2023/08/18 09:38:57;;;;;;;7.37;6.63;;;;;;;26.61;94.93;100194.13;4990187;28;20669;-79
2023/08/18 09:41:23;;;;;;;8.53;6.47;;;;;;;26.76;95.06;100191.25;4991342;28;20184;-79
2023/08/18 09:43:48;;;;;;;6.87;6.27;;;;;;;26.59;93.45;100189.91;4995739;28;20299;-81
2023/08/18 09:46:15;;;;;;;6.97;6.33;;;;;;;26.74;93.67;100190.50;5005907;28;20292;-81
2023/08/18 09:48:45;;;;;;;7.23;6.50;;;;;;;26.72;95.30;100180.00;4990275;28;20188;-79
2023/08/18 09:51:12;;;;;;;8.13;7.07;;;;;;;26.69;96.76;100190.88;4984243;28;20705;-79
2023/08/18 09:53:45;;;;;;;8.23;7.47;;;;;;;26.77;97.12;100183.16;4993599;28;20867;-81
2023/08/18 09:56:13;;;;;;;7.37;6.77;;;;;;;26.66;97.10;100177.84;4989617;28;20568;-79
2023/08/18 09:58:54;;;;;;;7.47;6.67;;;;;;;26.44;99.43;100173.38;4990539;28;20193;-80
2023/08/18 10:01:21;;;;;;;7.13;6.53;;;;;;;26.71;99.70;100173.00;5002505;28;20806;-79
2023/08/18 10:03:47;;;;;;;7.60;6.90;;;;;;;26.87;98.71;100175.34;5006939;28;20323;-80
2023/08/18 10:06:17;;;;;;;8.20;7.40;;;;;;;26.75;99.05;100171.81;4989619;28;20220;-81
2023/08/18 10:08:43;;;;;;;6.90;6.20;;;;;;;26.83;100.00;100170.41;4994611;28;20193;-80
2023/08/18 10:11:09;;;;;;;7.30;6.63;;;;;;;27.21;98.97;100167.31;4988862;28;20197;-78
2023/08/18 10:13:37;;;;;;;12.13;7.83;;;;;;;26.95;99.59;100174.72;4981265;28;20688;-81
2023/08/18 10:16:04;;;;;;;10.37;7.77;;;;;;;26.95;100.00;100173.84;4985618;28;20201;-79
2023/08/18 10:18:30;;;;;;;7.77;7.07;;;;;;;27.26;99.33;100164.28;4986229;28;20216;-79
2023/08/18 10:20:56;;;;;;;10.20;7.33;;;;;;;27.36;100.00;100156.41;4986156;28;20205;-77
2023/08/18 10:23:29;;;;;;;10.03;7.50;;;;;;;27.41;99.63;100161.31;4985776;28;20224;-79
2023/08/18 10:25:54;;;;;;;9.77;7.00;;;;;;;27.22;100.00;100152.19;4984402;28;20185;-80
2023/08/18 10:28:20;;;;;;;8.27;7.47;;;;;;;27.10;100.00;100158.50;4983922;28;20197;-79
2023/08/18 10:31:03;;;;;;;8.20;7.40;;;;;;;27.17;100.00;100155.25;4984309;28;20221;-79
2023/08/18 10:33:46;;;;;;;8.10;7.17;;;;;;;27.29;100.00;100153.41;4985614;28;20193;-78
2023/08/18 10:36:26;;;;;;;9.30;7.13;;;;;;;27.23;100.00;100141.44;4985634;28;20291;-79
2023/08/18 10:38:54;;;;;;;16.03;8.03;;;;;;;27.27;100.00;100143.84;5000387;28;20216;-79
2023/08/18 10:41:28;;;;;;;7.77;6.83;;;;;;;27.48;100.00;100133.28;4998931;28;20611;-79
2023/08/18 10:43:58;;;;;;;7.20;6.50;;;;;;;27.57;100.00;100134.34;4982858;28;20296;-80
2023/08/18 10:46:33;;;;;;;7.20;6.50;;;;;;;27.73;98.79;100131.25;4991320;28;20200;-79
2023/08/18 10:48:59;;;;;;;8.83;6.57;;;;;;;27.47;97.95;100127.16;4999070;28;20221;-78
2023/08/18 10:51:24;;;;;;;7.87;7.13;;;;;;;27.62;94.55;100132.97;4987166;28;20216;-78
2023/08/18 10:53:50;;;;;;;7.03;6.30;;;;;;;27.74;94.69;100133.78;4985152;28;20213;-79
2023/08/18 10:56:15;;;;;;;6.43;5.83;;;;;;;27.73;92.86;100131.25;4985756;28;20225;-80
2023/08/18 10:58:40;;;;;;;6.93;5.93;;;;;;;27.76;92.81;100138.97;4983875;28;20209;-80
2023/08/18 11:01:08;;;;;;;6.47;5.70;;;;;;;27.70;92.21;100137.66;4987377;28;20243;-80
2023/08/18 11:03:33;;;;;;;6.10;5.50;;;;;;;27.92;92.29;100141.19;4981951;28;21072;-79
2023/08/18 11:05:59;;;;;;;5.57;5.07;;;;;;;27.93;91.89;100140.22;4986565;28;20192;-79
2023/08/18 11:08:25;;;;;;;6.57;5.97;;;;;;;28.19;91.14;100130.03;4981498;28;20213;-79
2023/08/18 11:10:50;;;;;;;6.83;6.20;;;;;;;28.22;93.01;100123.59;4984603;28;20756;-80